Hauptseite
METAR-TAF:

METAR-TAF

Flughäfen :

Memmingen, Deutschland

Breite: 47-59-33N, Länge: 10-14-37E, Höhe: 633 m

Beobachtung

Neuester Wetterbericht von vor 7 Stunden und 37 Minuten, um 20:50 UTC
Wind 4 kt aus Nordwest
Temperatur 8°C
Luftfeuchtigkeit 71%
Luftdruck 1022 hPa
Sichtweite: 7000 m
Leicht bewölkt in der Höhe von 3600 ft
Aufgelockert bewölkt in der Höhe von 7100 ft

METAR: EDJA 242050Z 32004KT 7000 FEW036 SCT071 08/03 Q1022

Zeit: 05:27 (04:27 UTC)

Prognose

Neuester Wetterbericht von vor 11 Stunden und 27 Minuten, um 17:00 UTC
Gültige Prognose vom 24 um 18 UTC bis 25 um 03 UTC
Wind 7 kt aus Nord/Nordwest
Sichtweite 10 km oder mehr
Aufgelockert bewölkt in der Höhe von 4000 ft
Übergehend zu
vom 24 um 20 UTC bis 24 um 22 UTC
Wind 4 kt aus West

TAF: EDJA 241700Z 2418/2503 34007KT 9999 SCT040 BECMG 2420/2422 26004KT

Wetterbeobachtungen und Prognosen von mehr als 4000 Flughäfen (METAR und TAF Bericht).

Die verfügbaren Stationen werden durch gelbe und rote Markierungen auf der Karte dargestellt.

Führen Sie die Maus auf sie, um den Namen der Station zu sehen.

Darauf klicken, um die Beobachtung von Wetterbeobachtungen und Prognosen zu sehen.

Um die Karte zu ändern : klicken Sie auf den grünen Tasten mit einem schwarzen Kreuz Zum Vergrößern, auf den grünen Button mit einem Gedankenstrich zu verkleinern, oder auf die grünen Pfeile für benachbarte Karten.


METAR-TAF: